Time,TemperatureF,DewpointF,PressureIn,WindDirection,WindDirectionDegrees,WindSpeedMPH,WindSpeedGustMPH,Humidity,HourlyPrecipIn,Conditions,Clouds,dailyrainin,SoftwareType,DateUTC
2013-08-25 00:10:00,70.0,62.0,30.22,East,89,0.0,0.0,76,0.00,,,0.00,weatherlink.com 1.10,2013-08-25 04:10:00,
2013-08-25 00:25:00,69.2,62.0,30.22,East,88,0.0,0.0,78,0.00,,,0.00,weatherlink.com 1.10,2013-08-25 04:25:00,
2013-08-25 00:40:00,68.6,62.0,30.22,East,88,0.0,0.0,78,0.00,,,0.00,weatherlink.com 1.10,2013-08-25 04:40:00,
2013-08-25 00:55:00,68.2,62.0,30.23,East,88,0.0,0.0,80,0.00,,,0.00,weatherlink.com 1.10,2013-08-25 04:55:00,
2013-08-25 01:10:00,67.8,62.0,30.22,East,88,0.0,0.0,82,0.00,,,0.00,weatherlink.com 1.10,2013-08-25 05:10:00,
2013-08-25 01:25:00,67.1,61.0,30.23,East,88,0.0,0.0,82,0.00,,,0.00,weatherlink.com 1.10,2013-08-25 05:25:00,
2013-08-25 01:40:00,67.0,61.0,30.23,East,88,0.0,0.0,82,0.00,,,0.00,weatherlink.com 1.10,2013-08-25 05:40:00,
2013-08-25 01:55:00,67.1,61.0,30.23,East,88,0.0,0.0,82,0.00,,,0.00,weatherlink.com 1.10,2013-08-25 05:55:00,
2013-08-25 02:10:00,66.9,61.0,30.22,East,88,0.0,0.0,82,0.00,,,0.00,weatherlink.com 1.10,2013-08-25 06:10:00,
2013-08-25 02:25:00,67.2,61.0,30.22,East,88,0.0,0.0,81,0.00,,,0.00,weatherlink.com 1.10,2013-08-25 06:25:00,
2013-08-25 02:40:00,67.7,62.0,30.22,East,87,0.0,0.0,81,0.00,,,0.00,weatherlink.com 1.10,2013-08-25 06:40:00,
2013-08-25 02:55:00,67.3,61.0,30.23,East,88,0.0,0.0,81,0.00,,,0.00,weatherlink.com 1.10,2013-08-25 06:55:00,
2013-08-25 03:10:00,66.8,61.0,30.23,East,88,0.0,0.0,82,0.00,,,0.00,weatherlink.com 1.10,2013-08-25 07:10:00,
2013-08-25 03:25:00,66.4,61.0,30.23,East,87,0.0,0.0,83,0.00,,,0.00,weatherlink.com 1.10,2013-08-25 07:25:00,
2013-08-25 03:40:00,66.1,61.0,30.23,East,87,0.0,0.0,84,0.00,,,0.00,weatherlink.com 1.10,2013-08-25 07:40:00,
2013-08-25 03:55:00,65.6,61.0,30.23,East,88,0.0,0.0,85,0.00,,,0.00,weatherlink.com 1.10,2013-08-25 07:55:00,
2013-08-25 04:10:00,65.2,61.0,30.23,East,87,0.0,0.0,87,0.00,,,0.00,weatherlink.com 1.10,2013-08-25 08:10:00,
2013-08-25 04:25:00,65.0,61.0,30.24,East,87,0.0,0.0,87,0.00,,,0.00,weatherlink.com 1.10,2013-08-25 08:25:00,
2013-08-25 04:40:00,65.0,61.0,30.24,East,88,0.0,0.0,88,0.00,,,0.00,weatherlink.com 1.10,2013-08-25 08:40:00,
2013-08-25 04:55:00,65.2,61.0,30.25,East,88,0.0,0.0,87,0.00,,,0.00,weatherlink.com 1.10,2013-08-25 08:55:00,
2013-08-25 05:10:00,64.5,61.0,30.25,East,88,0.0,0.0,88,0.00,,,0.00,weatherlink.com 1.10,2013-08-25 09:10:00,
2013-08-25 05:25:00,64.0,61.0,30.24,East,88,0.0,0.0,89,0.00,,,0.00,weatherlink.com 1.10,2013-08-25 09:25:00,
2013-08-25 05:41:00,64.2,61.0,30.25,East,88,0.0,0.0,89,0.00,,,0.00,weatherlink.com 1.10,2013-08-25 09:41:00,
2013-08-25 05:55:00,63.9,61.0,30.25,East,87,0.0,0.0,89,0.00,,,0.00,weatherlink.com 1.10,2013-08-25 09:55:00,
2013-08-25 06:10:00,63.3,61.0,30.26,East,87,0.0,0.0,91,0.00,,,0.00,weatherlink.com 1.10,2013-08-25 10:10:00,
2013-08-25 06:25:00,63.4,61.0,30.26,East,88,0.0,0.0,92,0.00,,,0.00,weatherlink.com 1.10,2013-08-25 10:25:00,
2013-08-25 06:41:00,63.0,60.0,30.27,East,89,0.0,0.0,91,0.00,,,0.00,weatherlink.com 1.10,2013-08-25 10:41:00,
2013-08-25 06:56:00,62.2,61.0,30.27,East,89,0.0,0.0,94,0.00,,,0.00,weatherlink.com 1.10,2013-08-25 10:56:00,
2013-08-25 07:10:00,61.9,60.0,30.28,East,89,0.0,0.0,94,0.00,,,0.00,weatherlink.com 1.10,2013-08-25 11:10:00,
2013-08-25 07:26:00,61.8,60.0,30.29,East,89,0.0,0.0,95,0.00,,,0.00,weatherlink.com 1.10,2013-08-25 11:26:00,
2013-08-25 07:41:00,61.8,61.0,30.30,East,89,0.0,0.0,96,0.00,,,0.00,weatherlink.com 1.10,2013-08-25 11:41:00,
2013-08-25 07:56:00,61.8,61.0,30.29,East,89,0.0,0.0,96,0.00,,,0.00,weatherlink.com 1.10,2013-08-25 11:56:00,
2013-08-25 08:11:00,62.4,61.0,30.29,East,89,0.0,0.0,96,0.00,,,0.00,weatherlink.com 1.10,2013-08-25 12:11:00,
2013-08-25 08:26:00,63.4,62.0,30.30,East,87,0.0,0.0,94,0.00,,,0.00,weatherlink.com 1.10,2013-08-25 12:26:00,
2013-08-25 08:41:00,64.0,62.0,30.30,East,89,0.0,0.0,92,0.00,,,0.00,weatherlink.com 1.10,2013-08-25 12:41:00,
2013-08-25 08:56:00,65.1,63.0,30.30,East,90,0.0,0.0,91,0.00,,,0.00,weatherlink.com 1.10,2013-08-25 12:56:00,
2013-08-25 09:11:00,66.3,63.0,30.30,ESE,122,0.0,0.0,89,0.00,,,0.00,weatherlink.com 1.10,2013-08-25 13:11:00,
2013-08-25 09:26:00,67.4,64.0,30.30,SE,124,0.0,0.0,88,0.00,,,0.00,weatherlink.com 1.10,2013-08-25 13:26:00,
2013-08-25 09:41:00,68.5,66.0,30.30,SE,139,0.0,0.0,90,0.00,,,0.00,weatherlink.com 1.10,2013-08-25 13:41:00,
2013-08-25 09:56:00,69.2,65.0,30.30,SW,224,0.0,0.0,86,0.00,,,0.00,weatherlink.com 1.10,2013-08-25 13:56:00,
2013-08-25 10:11:00,70.9,66.0,30.30,WSW,248,2.0,4.0,84,0.00,,,0.00,weatherlink.com 1.10,2013-08-25 14:11:00,
2013-08-25 10:26:00,72.4,67.0,30.29,SW,215,2.0,4.0,82,0.00,,,0.00,weatherlink.com 1.10,2013-08-25 14:26:00,
2013-08-25 10:41:00,74.1,66.0,30.29,SW,226,2.0,2.0,76,0.00,,,0.00,weatherlink.com 1.10,2013-08-25 14:41:00,
2013-08-25 10:56:00,75.2,68.0,30.30,WSW,248,0.0,2.0,79,0.00,,,0.00,weatherlink.com 1.10,2013-08-25 14:56:00,
2013-08-25 11:11:00,76.3,68.0,30.29,WSW,255,0.0,4.0,75,0.00,,,0.00,weatherlink.com 1.10,2013-08-25 15:11:00,
2013-08-25 11:26:00,77.0,67.0,30.29,SW,228,1.0,5.0,71,0.00,,,0.00,weatherlink.com 1.10,2013-08-25 15:26:00,
2013-08-25 11:41:00,79.0,68.0,30.29,WSW,245,1.0,3.0,68,0.00,,,0.00,weatherlink.com 1.10,2013-08-25 15:41:00,
2013-08-25 11:56:00,80.3,67.0,30.28,SSW,195,1.0,2.0,63,0.00,,,0.00,weatherlink.com 1.10,2013-08-25 15:56:00,
2013-08-25 12:11:00,81.2,66.0,30.28,NE,36,1.0,2.0,61,0.00,,,0.00,weatherlink.com 1.10,2013-08-25 16:11:00,
2013-08-25 12:26:00,81.5,67.0,30.28,WSW,243,1.0,4.0,61,0.00,,,0.00,weatherlink.com 1.10,2013-08-25 16:26:00,
2013-08-25 12:41:00,83.4,68.0,30.27,SE,129,0.0,5.0,61,0.00,,,0.00,weatherlink.com 1.10,2013-08-25 16:41:00,
2013-08-25 12:57:00,84.0,67.0,30.27,SW,228,2.0,3.0,56,0.00,,,0.00,weatherlink.com 1.10,2013-08-25 16:57:00,
2013-08-25 13:12:00,84.9,65.0,30.27,NE,43,0.0,6.0,52,0.00,,,0.00,weatherlink.com 1.10,2013-08-25 17:12:00,
2013-08-25 13:27:00,84.8,61.0,30.26,West,280,1.0,4.0,45,0.00,,,0.00,weatherlink.com 1.10,2013-08-25 17:27:00,
2013-08-25 13:42:00,85.9,65.0,30.26,SE,143,1.0,4.0,49,0.00,,,0.00,weatherlink.com 1.10,2013-08-25 17:42:00,
2013-08-25 13:57:00,86.0,64.0,30.25,East,94,0.0,2.0,48,0.00,,,0.00,weatherlink.com 1.10,2013-08-25 17:57:00,
2013-08-25 14:12:00,86.6,65.0,30.25,SE,129,2.0,4.0,48,0.00,,,0.00,weatherlink.com 1.10,2013-08-25 18:12:00,
2013-08-25 14:27:00,87.2,63.0,30.25,SW,229,2.0,4.0,45,0.00,,,0.00,weatherlink.com 1.10,2013-08-25 18:27:00,
2013-08-25 14:42:00,86.1,63.0,30.25,WNW,288,2.0,5.0,46,0.00,,,0.00,weatherlink.com 1.10,2013-08-25 18:42:00,
2013-08-25 14:57:00,86.7,62.0,30.24,WNW,291,1.0,4.0,44,0.00,,,0.00,weatherlink.com 1.10,2013-08-25 18:57:00,
2013-08-25 15:12:00,87.3,62.0,30.24,NNW,335,0.0,3.0,43,0.00,,,0.00,weatherlink.com 1.10,2013-08-25 19:12:00,
2013-08-25 15:27:00,88.4,64.0,30.24,SSW,200,0.0,2.0,44,0.00,,,0.00,weatherlink.com 1.10,2013-08-25 19:27:00,
2013-08-25 15:42:00,86.2,60.0,30.23,SW,231,0.0,5.0,41,0.00,,,0.00,weatherlink.com 1.10,2013-08-25 19:42:00,
2013-08-25 15:57:00,87.8,63.0,30.23,SE,136,0.0,3.0,44,0.00,,,0.00,weatherlink.com 1.10,2013-08-25 19:57:00,
2013-08-25 16:12:00,89.5,62.0,30.23,ESE,120,0.0,2.0,40,0.00,,,0.00,weatherlink.com 1.10,2013-08-25 20:12:00,
2013-08-25 16:27:00,88.4,65.0,30.22,SSW,201,3.0,4.0,46,0.00,,,0.00,weatherlink.com 1.10,2013-08-25 20:27:00,
2013-08-25 16:42:00,87.3,63.0,30.22,SSW,201,0.0,4.0,45,0.00,,,0.00,weatherlink.com 1.10,2013-08-25 20:42:00,
2013-08-25 16:57:00,88.5,62.0,30.21,East,86,1.0,1.0,41,0.00,,,0.00,weatherlink.com 1.10,2013-08-25 20:57:00,
2013-08-25 17:12:00,88.7,62.0,30.21,WSW,246,1.0,1.0,41,0.00,,,0.00,weatherlink.com 1.10,2013-08-25 21:12:00,
2013-08-25 17:27:00,88.1,62.0,30.20,West,269,0.0,2.0,41,0.00,,,0.00,weatherlink.com 1.10,2013-08-25 21:27:00,
2013-08-25 17:42:00,88.0,63.0,30.20,SW,215,0.0,1.0,43,0.00,,,0.00,weatherlink.com 1.10,2013-08-25 21:42:00,
2013-08-25 17:57:00,87.7,63.0,30.20,SW,218,1.0,4.0,43,0.00,,,0.00,weatherlink.com 1.10,2013-08-25 21:57:00,
2013-08-25 18:12:00,88.5,62.0,30.20,SW,226,3.0,3.0,41,0.00,,,0.00,weatherlink.com 1.10,2013-08-25 22:12:00,
2013-08-25 18:27:00,87.3,61.0,30.20,West,269,0.0,3.0,41,0.00,,,0.00,weatherlink.com 1.10,2013-08-25 22:27:00,
2013-08-25 18:42:00,86.1,62.0,30.20,WSW,243,0.0,2.0,45,0.00,,,0.00,weatherlink.com 1.10,2013-08-25 22:42:00,
2013-08-25 18:57:00,84.9,62.0,30.20,WSW,243,0.0,0.0,47,0.00,,,0.00,weatherlink.com 1.10,2013-08-25 22:57:00,
2013-08-25 19:12:00,83.2,63.0,30.19,WSW,243,0.0,0.0,50,0.00,,,0.00,weatherlink.com 1.10,2013-08-25 23:12:00,
2013-08-25 19:27:00,81.7,62.0,30.20,WSW,242,0.0,0.0,51,0.00,,,0.00,weatherlink.com 1.10,2013-08-25 23:27:00,
2013-08-25 19:42:00,80.2,62.0,30.19,WSW,243,0.0,0.0,54,0.00,,,0.00,weatherlink.com 1.10,2013-08-25 23:42:00,
2013-08-25 19:57:00,78.9,62.0,30.19,WSW,242,0.0,0.0,57,0.00,,,0.00,weatherlink.com 1.10,2013-08-25 23:57:00,
2013-08-25 20:12:00,77.9,63.0,30.19,WSW,242,0.0,0.0,61,0.00,,,0.00,weatherlink.com 1.10,2013-08-26 00:12:00,
2013-08-25 20:27:00,77.0,63.0,30.19,WSW,242,0.0,0.0,63,0.00,,,0.00,weatherlink.com 1.10,2013-08-26 00:27:00,
2013-08-25 20:42:00,76.1,64.0,30.20,WSW,242,0.0,0.0,66,0.00,,,0.00,weatherlink.com 1.10,2013-08-26 00:42:00,
2013-08-25 20:57:00,75.1,64.0,30.20,NW,316,1.0,1.0,68,0.00,,,0.00,weatherlink.com 1.10,2013-08-26 00:57:00,
2013-08-25 21:12:00,76.1,63.0,30.20,SW,226,0.0,0.0,65,0.00,,,0.00,weatherlink.com 1.10,2013-08-26 01:12:00,
2013-08-25 21:27:00,75.9,64.0,30.20,SW,226,0.0,0.0,66,0.00,,,0.00,weatherlink.com 1.10,2013-08-26 01:27:00,
2013-08-25 21:42:00,75.3,64.0,30.20,SW,226,0.0,0.0,68,0.00,,,0.00,weatherlink.com 1.10,2013-08-26 01:42:00,
2013-08-25 21:57:00,74.9,63.0,30.21,SW,226,0.0,0.0,66,0.00,,,0.00,weatherlink.com 1.10,2013-08-26 01:57:00,
2013-08-25 22:12:00,75.1,64.0,30.21,SW,226,0.0,1.0,68,0.00,,,0.00,weatherlink.com 1.10,2013-08-26 02:12:00,
2013-08-25 22:27:00,74.2,65.0,30.21,SW,226,0.0,0.0,72,0.00,,,0.00,weatherlink.com 1.10,2013-08-26 02:27:00,
2013-08-25 22:42:00,73.5,64.0,30.21,SW,226,0.0,0.0,73,0.00,,,0.00,weatherlink.com 1.10,2013-08-26 02:42:00,
2013-08-25 22:57:00,72.7,65.0,30.21,SW,226,0.0,0.0,77,0.00,,,0.00,weatherlink.com 1.10,2013-08-26 02:57:00,
2013-08-25 23:12:00,72.4,65.0,30.22,SW,226,0.0,1.0,78,0.00,,,0.00,weatherlink.com 1.10,2013-08-26 03:12:00,
2013-08-25 23:27:00,72.6,65.0,30.22,SW,226,0.0,0.0,78,0.00,,,0.00,weatherlink.com 1.10,2013-08-26 03:27:00,
2013-08-25 23:42:00,71.9,65.0,30.22,SW,226,0.0,0.0,80,0.00,,,0.00,weatherlink.com 1.10,2013-08-26 03:42:00,
2013-08-25 23:57:00,70.9,65.0,30.22,SW,226,0.0,0.0,82,0.00,,,0.00,weatherlink.com 1.10,2013-08-26 03:57:00,